createdAt,value
2018-08-28T00:01:24.832Z,3.10
2018-08-28T00:03:53.498Z,3.20
2018-08-28T00:06:21.626Z,3.30
2018-08-28T00:08:51.304Z,4.03
2018-08-28T00:11:19.166Z,3.80
2018-08-28T00:13:47.420Z,3.97
2018-08-28T00:16:15.635Z,4.47
2018-08-28T00:18:43.681Z,3.97
2018-08-28T00:21:11.569Z,4.33
2018-08-28T00:23:40.003Z,4.30
2018-08-28T00:26:08.062Z,4.10
2018-08-28T00:28:36.769Z,4.77
2018-08-28T00:31:04.655Z,4.03
2018-08-28T00:33:32.516Z,4.67
2018-08-28T00:36:00.441Z,3.70
2018-08-28T00:38:28.947Z,4.20
2018-08-28T00:40:57.607Z,4.20
2018-08-28T00:43:25.882Z,4.07
2018-08-28T00:45:53.765Z,3.80
2018-08-28T00:48:21.649Z,3.47
2018-08-28T00:50:49.563Z,3.90
2018-08-28T00:53:17.566Z,3.57
2018-08-28T00:55:45.488Z,4.40
2018-08-28T00:58:13.326Z,4.20
2018-08-28T01:00:41.272Z,4.50
2018-08-28T01:03:09.137Z,4.30
2018-08-28T01:05:37.275Z,4.67
2018-08-28T01:08:05.167Z,4.30
2018-08-28T01:10:33.037Z,4.83
2018-08-28T01:13:01.747Z,5.40
2018-08-28T01:15:29.602Z,5.13
2018-08-28T01:17:57.482Z,5.47
2018-08-28T01:20:25.341Z,5.23
2018-08-28T01:22:53.171Z,5.60
2018-08-28T01:25:21.510Z,5.73
2018-08-28T01:27:49.404Z,5.90
2018-08-28T01:30:21.575Z,6.47
2018-08-28T01:32:50.209Z,5.90
2018-08-28T01:35:18.103Z,6.57
2018-08-28T01:37:46.335Z,5.60
2018-08-28T01:40:14.648Z,6.10
2018-08-28T01:42:42.505Z,5.97
2018-08-28T01:45:10.361Z,5.50
2018-08-28T01:47:38.222Z,5.63
2018-08-28T01:50:06.641Z,5.83
2018-08-28T01:52:34.519Z,5.20
2018-08-28T01:55:02.450Z,5.43
2018-08-28T01:57:30.882Z,5.43
2018-08-28T01:59:58.797Z,6.67
2018-08-28T02:02:26.637Z,6.30
2018-08-28T02:04:54.530Z,6.30
2018-08-28T02:07:22.443Z,5.27
2018-08-28T02:09:50.399Z,6.30
2018-08-28T02:12:18.301Z,6.20
2018-08-28T02:14:46.349Z,5.90
2018-08-28T02:17:15.525Z,6.57
2018-08-28T02:19:43.372Z,5.87
2018-08-28T02:22:11.889Z,6.13
2018-08-28T02:24:39.751Z,6.30
2018-08-28T02:27:08.040Z,6.63
2018-08-28T02:29:36.010Z,6.73
2018-08-28T02:32:04.584Z,7.40
2018-08-28T02:34:32.587Z,6.70
2018-08-28T02:37:00.433Z,7.73
2018-08-28T02:39:28.484Z,7.30
2018-08-28T02:41:56.338Z,6.77
2018-08-28T02:44:24.237Z,6.50
2018-08-28T02:46:52.166Z,7.10
2018-08-28T02:49:20.154Z,6.70
2018-08-28T02:51:48.012Z,5.90
2018-08-28T02:54:15.880Z,6.63
2018-08-28T02:59:18.196Z,7.33
2018-08-28T03:01:46.078Z,6.77
2018-08-28T03:04:13.902Z,7.60
2018-08-28T03:06:41.792Z,6.87
2018-08-28T03:09:09.812Z,8.97
2018-08-28T03:11:37.792Z,7.80
2018-08-28T03:14:06.409Z,8.17
2018-08-28T03:16:34.300Z,8.73
2018-08-28T03:19:02.197Z,8.67
2018-08-28T03:21:30.245Z,8.73
2018-08-28T03:23:59.621Z,9.83
2018-08-28T03:26:27.522Z,9.07
2018-08-28T03:28:56.390Z,9.27
2018-08-28T03:31:24.242Z,7.57
2018-08-28T03:33:52.260Z,8.43
2018-08-28T03:36:20.144Z,8.30
2018-08-28T03:38:48.421Z,8.37
2018-08-28T03:41:17.264Z,7.53
2018-08-28T03:43:45.147Z,8.40
2018-08-28T03:46:13.026Z,8.27
2018-08-28T03:48:40.914Z,7.50
2018-08-28T03:51:09.440Z,8.07
2018-08-28T03:53:38.034Z,8.03
2018-08-28T03:56:06.478Z,8.00
2018-08-28T03:58:34.334Z,7.53
2018-08-28T04:01:02.706Z,8.43
2018-08-28T04:03:30.642Z,8.07
2018-08-28T04:05:58.618Z,8.70
2018-08-28T04:08:26.518Z,9.17
2018-08-28T04:10:54.362Z,9.13
2018-08-28T04:13:22.606Z,9.77
2018-08-28T04:15:50.431Z,10.23
2018-08-28T04:18:18.381Z,8.43
2018-08-28T04:20:46.201Z,8.60
2018-08-28T04:23:15.163Z,9.17
2018-08-28T04:25:43.241Z,8.80
2018-08-28T04:28:11.753Z,8.27
2018-08-28T04:30:39.838Z,9.07
2018-08-28T04:33:07.953Z,9.27
2018-08-28T04:35:35.835Z,9.80
2018-08-28T04:38:03.783Z,10.47
2018-08-28T04:40:31.727Z,9.13
2018-08-28T04:42:59.667Z,9.60
2018-08-28T04:45:27.779Z,8.20
2018-08-28T04:47:55.695Z,8.83
2018-08-28T04:50:23.622Z,8.97
2018-08-28T04:52:51.504Z,8.20
2018-08-28T04:55:19.803Z,9.67
2018-08-28T04:57:47.666Z,10.20
2018-08-28T05:00:15.778Z,9.50
2018-08-28T05:02:43.910Z,9.27
2018-08-28T05:05:11.979Z,9.37
2018-08-28T05:07:40.016Z,8.70
2018-08-28T05:10:07.950Z,9.03
2018-08-28T05:12:36.088Z,9.37
2018-08-28T05:15:04.122Z,9.23
2018-08-28T05:17:32.058Z,9.87
2018-08-28T05:19:59.968Z,9.50
2018-08-28T05:22:27.948Z,8.80
2018-08-28T05:24:56.008Z,9.53
2018-08-28T05:27:26.188Z,9.70
2018-08-28T05:29:54.186Z,9.40
2018-08-28T05:32:22.954Z,8.50
2018-08-28T05:34:50.972Z,9.93
2018-08-28T05:37:19.059Z,11.97
2018-08-28T05:39:47.075Z,10.63
2018-08-28T05:42:15.524Z,9.27
2018-08-28T05:44:43.466Z,9.13
2018-08-28T05:47:11.307Z,8.47
2018-08-28T05:49:39.296Z,9.67
2018-08-28T05:52:07.810Z,9.00
2018-08-28T05:54:35.666Z,8.33
2018-08-28T05:57:03.912Z,8.63
2018-08-28T05:59:31.837Z,7.43
2018-08-28T06:01:59.698Z,8.03
2018-08-28T06:04:28.068Z,8.03
2018-08-28T06:06:56.058Z,8.27
2018-08-28T06:09:26.218Z,9.23
2018-08-28T06:11:54.864Z,8.13
2018-08-28T06:14:23.004Z,8.80
2018-08-28T06:16:51.004Z,7.27
2018-08-28T06:19:18.936Z,6.83
2018-08-28T06:21:46.875Z,6.80
2018-08-28T06:24:14.818Z,6.80
2018-08-28T06:26:42.903Z,6.33
2018-08-28T06:29:10.759Z,6.83
2018-08-28T06:31:38.663Z,6.20
2018-08-28T06:34:07.603Z,6.30
2018-08-28T06:36:37.865Z,5.63
2018-08-28T06:39:07.513Z,5.87
2018-08-28T06:41:35.425Z,5.57
2018-08-28T06:44:03.387Z,4.77
2018-08-28T06:46:31.351Z,4.60
2018-08-28T06:48:59.423Z,5.40
2018-08-28T06:51:27.343Z,5.40
2018-08-28T06:53:55.397Z,5.70
2018-08-28T06:56:23.633Z,4.40
2018-08-28T06:58:51.483Z,4.00
2018-08-28T07:01:19.644Z,3.93
2018-08-28T07:03:47.634Z,4.20
2018-08-28T07:06:16.986Z,4.27
2018-08-28T07:08:44.911Z,4.50
2018-08-28T07:11:12.900Z,4.33
2018-08-28T07:13:40.941Z,4.33
2018-08-28T07:16:08.867Z,4.33
2018-08-28T07:18:37.483Z,3.90
2018-08-28T07:21:05.529Z,3.83
2018-08-28T07:23:33.615Z,4.40
2018-08-28T07:26:01.814Z,4.60
2018-08-28T07:28:32.476Z,4.47
2018-08-28T07:33:45.153Z,4.57
2018-08-28T07:36:13.703Z,4.00
2018-08-28T07:38:46.586Z,4.27
2018-08-28T07:41:18.561Z,4.20
2018-08-28T07:43:47.681Z,4.03
2018-08-28T07:46:17.911Z,3.43
2018-08-28T07:48:45.907Z,4.87
2018-08-28T07:51:13.938Z,3.93
2018-08-28T07:53:44.326Z,3.47
2018-08-28T07:56:13.133Z,4.00
2018-08-28T07:58:42.343Z,3.80
2018-08-28T08:01:11.846Z,3.60
2018-08-28T08:03:39.920Z,3.50
2018-08-28T08:06:08.495Z,2.95
2018-08-28T08:08:36.716Z,3.80
2018-08-28T08:14:27.723Z,3.25
2018-08-28T08:16:55.870Z,2.85
2018-08-28T08:19:23.853Z,7.65
2018-08-28T08:21:52.176Z,6.00
2018-08-28T08:24:20.233Z,3.25
2018-08-28T08:26:51.377Z,3.58
2018-08-28T08:29:20.259Z,2.87
2018-08-28T08:31:48.136Z,3.47
2018-08-28T08:34:16.182Z,3.92
2018-08-28T08:36:44.061Z,3.55
2018-08-28T08:39:19.323Z,3.75
2018-08-28T08:41:50.676Z,4.00
2018-08-28T08:44:18.687Z,3.75
2018-08-28T08:46:46.560Z,3.37
2018-08-28T08:49:15.432Z,3.95
2018-08-28T08:51:43.324Z,3.08
2018-08-28T08:54:11.364Z,3.25
2018-08-28T08:56:41.231Z,3.67
2018-08-28T08:59:09.190Z,3.42
2018-08-28T09:01:37.268Z,3.65
2018-08-28T09:04:05.724Z,3.87
2018-08-28T09:06:33.807Z,3.30
2018-08-28T09:09:01.876Z,6.95
2018-08-28T09:11:29.763Z,6.42
2018-08-28T09:13:57.713Z,4.80
2018-08-28T09:16:25.638Z,3.50
2018-08-28T09:18:53.682Z,3.45
2018-08-28T09:21:21.577Z,3.20
2018-08-28T09:23:49.818Z,3.87
2018-08-28T09:26:17.748Z,3.87
2018-08-28T09:28:45.811Z,4.10
2018-08-28T09:31:13.964Z,4.25
2018-08-28T09:33:42.610Z,4.12
2018-08-28T09:36:10.664Z,3.80
2018-08-28T09:38:38.708Z,4.08
2018-08-28T09:41:06.580Z,5.70
2018-08-28T09:43:35.208Z,4.20
2018-08-28T09:46:03.119Z,3.58
2018-08-28T09:48:32.036Z,4.00
2018-08-28T09:51:00.916Z,4.15
2018-08-28T09:53:28.984Z,3.50
2018-08-28T09:55:57.141Z,4.00
2018-08-28T09:58:26.135Z,4.40
2018-08-28T10:02:00.660Z,3.12
2018-08-28T10:04:28.785Z,3.42
2018-08-28T10:06:56.844Z,3.80
2018-08-28T10:09:24.811Z,4.05
2018-08-28T10:11:52.944Z,4.40
2018-08-28T10:14:20.775Z,3.85
2018-08-28T10:16:50.243Z,3.77
2018-08-28T10:19:18.363Z,3.90
2018-08-28T10:21:47.133Z,4.17
2018-08-28T10:24:15.167Z,3.50
2018-08-28T10:26:44.776Z,3.65
2018-08-28T10:29:12.660Z,4.75
2018-08-28T10:31:40.529Z,4.05
2018-08-28T10:34:09.465Z,3.83
2018-08-28T10:36:38.511Z,4.22
2018-08-28T10:39:07.418Z,4.20
2018-08-28T10:41:35.299Z,4.10
2018-08-28T10:44:03.354Z,3.90
2018-08-28T10:46:31.497Z,4.30
2018-08-28T10:48:59.660Z,4.17
2018-08-28T10:51:27.657Z,3.98
2018-08-28T10:53:58.035Z,3.75
2018-08-28T10:56:26.157Z,4.03
2018-08-28T10:58:54.287Z,3.12
2018-08-28T11:01:22.277Z,3.83
2018-08-28T11:03:50.147Z,3.60
2018-08-28T11:06:18.206Z,4.05
2018-08-28T11:08:46.414Z,4.10
2018-08-28T11:11:14.325Z,3.83
2018-08-28T11:13:42.882Z,3.50
2018-08-28T11:16:10.898Z,3.33
2018-08-28T11:18:38.739Z,4.67
2018-08-28T11:21:06.791Z,3.75
2018-08-28T11:23:35.479Z,4.10
2018-08-28T11:26:03.528Z,3.77
2018-08-28T11:28:31.425Z,4.12
2018-08-28T11:30:59.323Z,3.70
2018-08-28T11:33:27.341Z,3.75
2018-08-28T11:35:55.907Z,4.37
2018-08-28T11:38:23.873Z,3.75
2018-08-28T11:40:51.716Z,3.60
2018-08-28T11:43:19.674Z,3.80
2018-08-28T11:45:47.685Z,4.12
2018-08-28T11:48:15.685Z,3.52
2018-08-28T11:50:43.850Z,3.72
2018-08-28T11:53:12.247Z,3.30
2018-08-28T11:55:40.233Z,3.00
2018-08-28T11:58:08.257Z,3.27
2018-08-28T12:00:36.187Z,3.65
2018-08-28T12:03:04.172Z,4.03
2018-08-28T12:05:32.201Z,3.87
2018-08-28T12:08:00.209Z,3.83
2018-08-28T12:10:29.323Z,3.52
2018-08-28T12:12:57.584Z,3.60
2018-08-28T12:15:26.374Z,3.70
2018-08-28T12:17:55.648Z,3.60
2018-08-28T12:20:23.701Z,3.33
2018-08-28T12:22:52.063Z,3.80
2018-08-28T12:25:20.662Z,3.70
2018-08-28T12:27:48.548Z,3.83
2018-08-28T12:30:16.477Z,3.60
2018-08-28T12:32:44.411Z,3.85
2018-08-28T12:35:12.263Z,11.53
2018-08-28T12:37:40.337Z,3.58
2018-08-28T12:40:08.352Z,3.83
2018-08-28T12:42:37.814Z,3.90
2018-08-28T12:45:06.662Z,3.35
2018-08-28T12:47:37.591Z,3.50
2018-08-28T12:50:05.893Z,3.40
2018-08-28T12:52:33.855Z,4.42
2018-08-28T12:55:02.802Z,3.98
2018-08-28T12:57:30.708Z,3.72
2018-08-28T12:59:59.686Z,3.60
2018-08-28T13:02:27.718Z,4.47
2018-08-28T13:04:55.555Z,3.55
2018-08-28T13:07:23.617Z,3.37
2018-08-28T13:09:53.106Z,4.00
2018-08-28T13:12:24.040Z,3.72
2018-08-28T13:14:52.130Z,3.27
2018-08-28T13:17:20.386Z,3.92
2018-08-28T13:19:48.632Z,3.55
2018-08-28T13:22:16.593Z,4.00
2018-08-28T13:24:44.826Z,3.80
2018-08-28T13:27:12.686Z,3.77
2018-08-28T13:29:40.742Z,3.83
2018-08-28T13:32:08.758Z,3.58
2018-08-28T13:34:36.630Z,3.45
2018-08-28T13:37:04.786Z,4.00
2018-08-28T13:39:33.340Z,4.50
2018-08-28T13:42:01.206Z,3.60
2018-08-28T13:44:29.441Z,4.30
2018-08-28T13:46:57.912Z,3.90
2018-08-28T13:49:25.727Z,3.95
2018-08-28T13:51:53.633Z,3.60
2018-08-28T13:54:21.904Z,4.05
2018-08-28T13:56:50.240Z,5.58
2018-08-28T13:59:18.136Z,4.47
2018-08-28T14:01:46.251Z,4.10
2018-08-28T14:04:14.760Z,4.00
2018-08-28T14:06:42.600Z,4.00
2018-08-28T14:09:10.474Z,3.95
2018-08-28T14:11:38.514Z,4.00
2018-08-28T14:14:06.685Z,3.95
2018-08-28T14:16:34.582Z,3.62
2018-08-28T14:19:02.448Z,4.05
2018-08-28T14:21:30.646Z,4.03
2018-08-28T14:23:58.512Z,3.95
2018-08-28T14:26:26.671Z,4.03
2018-08-28T14:28:54.672Z,4.10
2018-08-28T14:31:23.108Z,4.58
2018-08-28T14:33:51.130Z,3.40
2018-08-28T14:36:19.949Z,5.40
2018-08-28T14:38:48.834Z,4.12
2018-08-28T14:41:16.887Z,4.28
2018-08-28T14:43:45.502Z,4.00
2018-08-28T14:46:13.970Z,3.80
2018-08-28T14:48:42.061Z,3.85
2018-08-28T14:51:09.933Z,5.30
2018-08-28T14:53:38.661Z,3.95
2018-08-28T14:56:08.293Z,3.50
2018-08-28T14:58:36.196Z,3.37
2018-08-28T15:01:04.051Z,3.70
2018-08-28T15:03:31.989Z,3.83
2018-08-28T15:05:59.946Z,4.05
2018-08-28T15:08:28.001Z,3.50
2018-08-28T15:10:56.103Z,4.62
2018-08-28T15:13:25.116Z,4.03
2018-08-28T15:15:53.448Z,3.83
2018-08-28T15:18:21.707Z,4.47
2018-08-28T15:20:49.618Z,45.03
2018-08-28T15:23:17.398Z,4.17
2018-08-28T15:25:45.375Z,34.65
2018-08-28T15:28:15.251Z,16.50
2018-08-28T15:30:43.323Z,14.33
2018-08-28T15:33:11.364Z,70.52
2018-08-28T15:35:39.391Z,141.62
2018-08-28T15:38:07.299Z,133.75
2018-08-28T15:40:35.420Z,131.95
2018-08-28T15:43:03.614Z,157.18
2018-08-28T15:45:31.967Z,85.07
2018-08-28T15:48:00.117Z,136.32
2018-08-28T15:50:28.145Z,129.55
2018-08-28T15:52:56.015Z,117.82
2018-08-28T15:55:24.767Z,119.97
2018-08-28T15:57:52.759Z,126.27
2018-08-28T16:00:21.257Z,89.43
2018-08-28T16:02:49.223Z,15.88
2018-08-28T16:05:18.091Z,31.23
2018-08-28T16:07:45.995Z,77.40
2018-08-28T16:10:13.858Z,103.12
2018-08-28T16:12:41.843Z,105.72
2018-08-28T16:15:09.782Z,55.17
2018-08-28T16:17:37.692Z,105.52
2018-08-28T16:20:05.689Z,118.65
2018-08-28T16:22:43.928Z,124.05
2018-08-28T17:19:01.886Z,3.65
2018-08-28T17:21:29.736Z,2.92
2018-08-28T17:23:57.643Z,3.35
2018-08-28T17:26:25.555Z,3.93
2018-08-28T17:28:53.418Z,3.00
2018-08-28T17:31:21.636Z,3.10
2018-08-28T17:33:49.678Z,3.33
2018-08-28T17:36:17.560Z,3.03
2018-08-28T17:38:45.464Z,3.43
2018-08-28T17:41:15.090Z,3.30
2018-08-28T17:43:44.746Z,3.47
2018-08-28T17:46:12.668Z,3.13
2018-08-28T17:48:40.590Z,3.50
2018-08-28T17:51:08.623Z,3.00
2018-08-28T17:53:36.746Z,3.27
2018-08-28T17:56:04.647Z,3.43
2018-08-28T17:58:33.525Z,3.17
2018-08-28T18:01:02.100Z,3.43
2018-08-28T18:03:31.283Z,3.47
2018-08-28T18:05:59.251Z,3.43
2018-08-28T18:08:27.115Z,3.10
2018-08-28T18:10:55.163Z,3.40
2018-08-28T18:13:23.220Z,3.30
2018-08-28T18:15:51.103Z,3.30
2018-08-28T18:18:19.166Z,3.10
2018-08-28T18:20:47.069Z,3.50
2018-08-28T18:23:15.091Z,3.43
2018-08-28T18:25:42.955Z,3.80
2018-08-28T18:28:11.277Z,4.70
2018-08-28T18:30:40.113Z,3.67
2018-08-28T18:33:08.719Z,3.50
2018-08-28T18:35:36.676Z,3.73
2018-08-28T18:38:05.198Z,3.50
2018-08-28T18:40:33.083Z,3.30
2018-08-28T18:43:01.479Z,3.37
2018-08-28T18:45:29.575Z,3.63
2018-08-28T18:47:57.622Z,2.90
2018-08-28T18:50:26.259Z,3.63
2018-08-28T18:52:54.319Z,3.63
2018-08-28T18:55:22.188Z,3.63
2018-08-28T18:57:50.230Z,4.07
2018-08-28T19:00:18.119Z,3.20
2018-08-28T19:02:46.006Z,3.43
2018-08-28T19:05:14.962Z,3.50
2018-08-28T19:07:44.034Z,4.00
2018-08-28T19:10:12.043Z,4.70
2018-08-28T19:12:40.048Z,3.50
2018-08-28T19:15:08.004Z,3.50
2018-08-28T19:17:36.045Z,3.60
2018-08-28T19:20:05.228Z,3.97
2018-08-28T19:22:33.117Z,3.73
2018-08-28T19:25:00.980Z,3.90
2018-08-28T19:27:28.866Z,3.47
2018-08-28T19:29:57.345Z,4.27
2018-08-28T19:32:25.331Z,3.67
2018-08-28T19:34:53.125Z,4.40
2018-08-28T19:37:21.034Z,4.67
2018-08-28T19:39:51.067Z,3.40
2018-08-28T19:42:18.990Z,3.63
2018-08-28T19:44:46.880Z,3.60
2018-08-28T19:47:14.775Z,3.50
2018-08-28T19:49:42.673Z,3.17
2018-08-28T19:52:10.527Z,3.20
2018-08-28T19:54:38.569Z,3.17
2018-08-28T19:57:06.449Z,3.60
2018-08-28T19:59:35.257Z,4.63
2018-08-28T20:02:03.475Z,3.30
2018-08-28T20:04:31.372Z,3.50
2018-08-28T20:06:59.228Z,3.87
2018-08-28T20:09:27.275Z,3.10
2018-08-28T20:11:56.176Z,3.20
2018-08-28T20:14:24.076Z,2.73
2018-08-28T20:16:52.528Z,3.00
2018-08-28T20:19:20.600Z,3.40
2018-08-28T20:21:49.084Z,3.53
2018-08-28T20:24:16.990Z,3.57
2018-08-28T20:26:44.913Z,3.27
2018-08-28T20:29:12.803Z,3.40
2018-08-28T20:31:41.473Z,3.17
2018-08-28T20:34:09.724Z,3.03
2018-08-28T20:36:37.582Z,3.23
2018-08-28T20:39:05.928Z,4.93
2018-08-28T20:41:33.864Z,4.00
2018-08-28T20:44:01.794Z,3.30
2018-08-28T20:46:29.642Z,3.63
2018-08-28T20:48:57.928Z,3.40
2018-08-28T20:51:26.589Z,3.80
2018-08-28T20:53:54.572Z,4.13
2018-08-28T20:56:22.543Z,3.60
2018-08-28T20:58:51.400Z,3.67
2018-08-28T21:01:19.334Z,2.97
2018-08-28T21:03:47.206Z,3.60
2018-08-28T21:06:15.125Z,3.50
2018-08-28T21:08:43.360Z,3.23
2018-08-28T21:11:11.402Z,3.40
2018-08-28T21:13:39.246Z,3.23
2018-08-28T21:16:07.106Z,3.47
2018-08-28T21:18:35.216Z,3.23
2018-08-28T21:21:03.750Z,3.00
2018-08-28T21:23:31.653Z,3.40
2018-08-28T21:25:59.598Z,3.03
2018-08-28T21:28:27.498Z,3.50
2018-08-28T21:30:55.620Z,3.10
2018-08-28T21:33:23.500Z,3.10
2018-08-28T21:35:53.249Z,3.13
2018-08-28T21:38:22.049Z,3.80
2018-08-28T21:40:50.049Z,3.00
2018-08-28T21:43:18.172Z,3.67
2018-08-28T21:45:46.040Z,3.70
2018-08-28T21:48:14.520Z,3.27
2018-08-28T21:50:42.350Z,3.20
2018-08-28T21:53:10.893Z,3.00
2018-08-28T21:55:38.836Z,3.10
2018-08-28T21:58:06.978Z,3.67
2018-08-28T22:00:34.858Z,3.20
2018-08-28T22:03:02.765Z,2.90
2018-08-28T22:05:31.833Z,3.03
2018-08-28T22:08:00.269Z,3.03
2018-08-28T22:10:28.452Z,3.00
2018-08-28T22:12:56.458Z,3.43
2018-08-28T22:15:24.330Z,3.73
2018-08-28T22:17:52.421Z,2.90
2018-08-28T22:20:20.404Z,3.30
2018-08-28T22:22:48.314Z,3.60
2018-08-28T22:25:16.774Z,3.60
2018-08-28T22:27:45.928Z,3.37
2018-08-28T22:30:13.890Z,3.57
2018-08-28T22:32:42.336Z,3.37
2018-08-28T22:35:10.477Z,3.23
2018-08-28T22:37:38.381Z,3.50
2018-08-28T22:40:07.823Z,3.33
2018-08-28T22:42:35.685Z,3.87
2018-08-28T22:45:04.922Z,3.00
2018-08-28T22:47:32.812Z,3.90
2018-08-28T22:50:00.683Z,3.20
2018-08-28T22:55:03.574Z,3.63
2018-08-28T22:57:31.717Z,3.80
2018-08-28T22:59:59.706Z,3.17
2018-08-28T23:02:27.573Z,3.17
2018-08-28T23:04:55.458Z,3.33
2018-08-28T23:07:23.512Z,3.67
2018-08-28T23:09:51.413Z,3.60
2018-08-28T23:12:19.284Z,3.57
2018-08-28T23:14:47.411Z,3.17
2018-08-28T23:17:16.921Z,4.17
2018-08-28T23:19:44.758Z,3.50
2018-08-28T23:22:12.647Z,3.27
2018-08-28T23:24:40.495Z,3.60
2018-08-28T23:27:08.462Z,3.63
2018-08-28T23:29:36.589Z,3.40
2018-08-28T23:32:04.684Z,4.30
2018-08-28T23:34:32.586Z,3.83
2018-08-28T23:37:00.559Z,3.83
2018-08-28T23:39:28.445Z,3.57
2018-08-28T23:41:56.291Z,3.67
2018-08-28T23:44:24.312Z,3.73
2018-08-28T23:46:52.326Z,3.63
2018-08-28T23:49:20.201Z,3.63
2018-08-28T23:51:48.243Z,3.67
2018-08-28T23:54:16.353Z,3.90
2018-08-28T23:56:44.386Z,3.63
2018-08-28T23:59:12.275Z,5.10
